createdAt,value
2022-10-23T00:01:44.379Z,10.55
2022-10-23T00:12:28.065Z,14.30
2022-10-23T00:14:54.491Z,12.18
2022-10-23T00:17:21.048Z,12.98
2022-10-23T00:19:47.531Z,11.80
2022-10-23T00:22:14.031Z,10.05
2022-10-23T07:58:32.936Z,21.33
2022-10-23T08:01:15.248Z,15.80
2022-10-23T08:03:41.933Z,15.38
2022-10-23T08:06:08.474Z,21.35
2022-10-23T08:08:35.175Z,21.75
2022-10-23T08:11:03.920Z,27.35
2022-10-23T08:13:39.767Z,19.00
2022-10-23T08:16:06.726Z,16.88
2022-10-23T08:19:06.132Z,13.60
2022-10-23T08:21:34.512Z,21.95
2022-10-23T08:24:01.967Z,16.23
2022-10-23T08:26:29.605Z,15.97
2022-10-23T08:28:58.317Z,14.20
2022-10-23T08:31:26.169Z,14.50
2022-10-23T08:34:13.000Z,17.92
2022-10-23T08:36:40.655Z,16.33
2022-10-23T08:39:07.796Z,12.55
2022-10-23T08:41:43.263Z,26.13
2022-10-23T08:44:14.208Z,21.48
2022-10-23T08:46:46.970Z,20.42
2022-10-23T08:49:41.208Z,40.05
2022-10-23T08:52:14.124Z,19.50
2022-10-23T08:54:54.760Z,25.17
2022-10-23T08:57:23.436Z,22.77
2022-10-23T08:59:52.851Z,31.45
2022-10-23T09:02:25.473Z,18.48
2022-10-23T09:04:53.506Z,17.17
2022-10-23T09:07:34.060Z,19.55
2022-10-23T09:10:10.540Z,16.92
2022-10-23T09:12:37.069Z,31.00
2022-10-23T09:15:22.557Z,24.15
2022-10-23T09:17:54.008Z,19.27
2022-10-23T09:20:22.392Z,19.40
2022-10-23T09:25:20.720Z,19.50
2022-10-23T09:27:55.714Z,21.15
2022-10-23T09:30:41.698Z,23.13
2022-10-23T09:33:14.314Z,19.58
2022-10-23T09:35:51.214Z,21.50
2022-10-23T09:38:26.062Z,24.60
2022-10-23T09:40:52.774Z,24.08
2022-10-23T09:43:23.251Z,21.13
2022-10-23T09:45:56.892Z,21.45
2022-10-23T09:48:23.396Z,23.33
2022-10-23T09:50:54.154Z,21.42
2022-10-23T09:53:23.405Z,22.15
2022-10-23T09:55:54.411Z,29.15
2022-10-23T09:58:24.963Z,25.23
2022-10-23T10:00:53.450Z,24.33
2022-10-23T10:03:37.317Z,24.55
2022-10-23T10:06:22.460Z,24.77
2022-10-23T10:08:50.818Z,27.80
2022-10-23T10:14:01.824Z,21.05
2022-10-23T10:16:37.750Z,27.15
2022-10-23T10:19:16.396Z,25.30
2022-10-23T10:21:42.841Z,22.95
2022-10-23T10:24:20.406Z,26.23
2022-10-23T10:27:13.067Z,21.42
2022-10-23T10:29:54.035Z,24.63
2022-10-23T10:32:20.438Z,23.13
2022-10-23T10:35:15.228Z,24.40
2022-10-23T10:38:00.559Z,22.75
2022-10-23T10:40:35.379Z,23.25
2022-10-23T10:43:20.719Z,23.52
2022-10-23T10:45:48.620Z,25.02
2022-10-23T10:48:15.134Z,27.02
2022-10-23T10:51:23.071Z,21.80
2022-10-23T10:53:58.829Z,20.23
2022-10-23T10:56:27.305Z,20.42
2022-10-23T10:58:56.578Z,22.15
2022-10-23T11:01:28.698Z,21.23
2022-10-23T11:03:58.600Z,21.52
2022-10-23T11:09:51.728Z,20.52
2022-10-23T11:12:19.752Z,21.25
2022-10-23T11:14:46.323Z,20.63
2022-10-23T11:20:44.764Z,18.75
2022-10-23T11:39:35.933Z,16.50
2022-10-23T11:42:30.219Z,16.63
2022-10-23T11:44:56.824Z,19.70
2022-10-23T11:47:43.198Z,19.98
2022-10-23T11:50:09.718Z,22.02
2022-10-23T11:56:37.924Z,17.05
2022-10-23T11:59:23.662Z,18.75
2022-10-23T12:02:17.540Z,16.95
2022-10-23T12:05:20.414Z,17.92
2022-10-23T12:16:42.213Z,14.98
2022-10-23T12:19:22.269Z,14.30
2022-10-23T12:22:13.201Z,13.35
2022-10-23T12:25:10.522Z,16.20
2022-10-23T12:27:57.334Z,15.05
2022-10-23T12:34:21.281Z,12.98
2022-10-23T12:41:11.454Z,16.20
2022-10-23T13:14:40.673Z,11.20
2022-10-23T13:17:41.384Z,15.30
2022-10-23T13:20:47.413Z,9.20
2022-10-23T13:38:15.998Z,10.38
2022-10-23T13:40:42.499Z,10.48
2022-10-23T13:43:16.805Z,8.85
2022-10-23T13:45:43.300Z,9.50
2022-10-23T13:48:13.643Z,11.07
2022-10-23T13:50:40.150Z,9.25
2022-10-23T14:03:56.691Z,9.20
2022-10-23T14:06:29.781Z,10.00
2022-10-23T14:09:06.881Z,11.35
2022-10-23T14:12:40.791Z,10.38
2022-10-23T14:27:08.483Z,9.73
2022-10-23T14:33:28.762Z,9.50
2022-10-23T14:35:55.220Z,9.93
2022-10-23T14:38:25.471Z,10.95
2022-10-23T15:20:06.068Z,8.23
2022-10-23T15:41:57.457Z,10.40
2022-10-23T15:44:24.654Z,12.23
2022-10-23T15:46:54.939Z,11.38
2022-10-23T15:49:21.469Z,12.60
2022-10-23T15:51:48.157Z,10.80
2022-10-23T15:54:19.198Z,10.65
2022-10-23T15:56:46.912Z,10.02
2022-10-23T15:59:13.788Z,12.18
2022-10-23T16:01:40.395Z,10.65
2022-10-23T16:04:06.929Z,9.05
2022-10-23T16:06:33.448Z,12.05
2022-10-23T16:09:00.010Z,13.82
2022-10-23T16:11:28.019Z,9.10
2022-10-23T16:13:55.668Z,10.25
2022-10-23T16:16:22.142Z,10.50
2022-10-23T16:18:48.597Z,12.05
2022-10-23T16:21:22.584Z,10.82
2022-10-23T16:23:49.651Z,11.73
2022-10-23T16:26:16.503Z,12.05
2022-10-23T16:28:47.275Z,11.20
2022-10-23T16:31:20.217Z,16.70
2022-10-23T16:33:50.591Z,11.38
2022-10-23T16:36:18.595Z,10.65
2022-10-23T16:39:13.709Z,12.95
2022-10-23T16:41:58.449Z,11.75
2022-10-23T16:44:33.528Z,12.63
2022-10-23T16:47:03.665Z,12.80
2022-10-23T16:49:32.110Z,14.15
2022-10-23T16:51:58.747Z,9.85
2022-10-23T16:54:25.323Z,10.32
2022-10-23T16:56:51.776Z,10.48
2022-10-23T16:59:18.327Z,12.25
2022-10-23T17:01:44.874Z,14.00
2022-10-23T17:04:11.497Z,15.07
2022-10-23T17:06:38.062Z,13.80
2022-10-23T17:09:05.026Z,11.30
2022-10-23T17:11:32.400Z,12.48
2022-10-23T17:14:00.169Z,12.47
2022-10-23T17:16:28.395Z,9.95
2022-10-23T17:18:55.442Z,11.80
2022-10-23T17:21:22.418Z,10.90
2022-10-23T17:23:49.616Z,10.70
2022-10-23T17:26:18.568Z,10.32
2022-10-23T17:28:45.516Z,10.80
2022-10-23T17:31:16.580Z,12.18
2022-10-23T17:33:43.870Z,10.30
2022-10-23T17:36:10.827Z,12.57
2022-10-23T17:38:38.320Z,8.85
2022-10-23T17:41:05.435Z,8.65
2022-10-23T17:43:32.107Z,10.75
2022-10-23T17:45:58.961Z,9.98
2022-10-23T17:48:25.892Z,10.30
2022-10-23T17:51:05.839Z,9.43
2022-10-23T17:53:33.185Z,11.00
2022-10-23T17:56:01.538Z,7.95
2022-10-23T17:58:27.998Z,8.27
2022-10-23T18:00:54.520Z,13.05
2022-10-23T18:03:21.065Z,10.50
2022-10-23T18:05:47.675Z,9.88
2022-10-23T18:08:14.329Z,8.50
2022-10-23T18:10:40.825Z,9.25
2022-10-23T18:13:07.421Z,7.82
2022-10-23T18:15:34.712Z,12.00
2022-10-23T18:18:01.430Z,9.15
2022-10-23T18:20:28.133Z,8.98
2022-10-23T18:22:54.668Z,8.80
2022-10-23T18:25:21.098Z,9.50
2022-10-23T18:27:47.614Z,9.40
2022-10-23T18:30:14.258Z,9.07
2022-10-23T18:32:40.940Z,8.82
2022-10-23T18:35:07.873Z,7.57
2022-10-23T18:37:37.763Z,10.68
2022-10-23T18:40:08.066Z,10.18
2022-10-23T18:42:34.673Z,8.68
2022-10-23T18:45:01.304Z,10.45
2022-10-23T18:47:27.774Z,9.80
2022-10-23T18:49:54.511Z,6.88
2022-10-23T18:52:20.939Z,10.68
2022-10-23T18:54:47.415Z,9.85
2022-10-23T18:57:13.853Z,11.40
2022-10-23T18:59:40.399Z,7.00
2022-10-23T19:02:07.074Z,7.80
2022-10-23T19:04:35.685Z,7.72
2022-10-23T19:07:02.999Z,8.73
2022-10-23T19:09:29.427Z,6.40
2022-10-23T19:11:55.924Z,6.53
2022-10-23T19:14:22.473Z,5.95
2022-10-23T19:17:02.769Z,5.43
2022-10-23T19:19:31.589Z,10.27
2022-10-23T19:21:58.286Z,6.97
2022-10-23T19:24:31.472Z,9.15
2022-10-23T19:26:59.367Z,4.88
2022-10-23T19:29:26.649Z,9.05
2022-10-23T19:31:53.563Z,5.95
2022-10-23T19:34:22.766Z,6.03
2022-10-23T19:36:49.911Z,6.85
2022-10-23T19:39:17.067Z,6.15
2022-10-23T19:41:43.944Z,7.60
2022-10-23T19:44:11.009Z,6.13
2022-10-23T19:46:38.265Z,6.32
2022-10-23T19:49:05.442Z,10.02
2022-10-23T19:51:32.424Z,6.88
2022-10-23T19:53:58.920Z,7.00
2022-10-23T19:56:25.787Z,6.13
2022-10-23T19:58:52.694Z,6.70
2022-10-23T20:01:20.980Z,6.78
2022-10-23T20:06:19.396Z,6.68
2022-10-23T20:08:46.017Z,7.50
2022-10-23T20:11:20.763Z,7.88
2022-10-23T20:13:47.921Z,8.23
2022-10-23T20:16:25.607Z,10.23
2022-10-23T20:18:52.531Z,6.57
2022-10-23T20:21:19.606Z,8.45
2022-10-23T20:23:46.422Z,7.18
2022-10-23T20:26:16.074Z,7.32
2022-10-23T20:28:46.808Z,5.72
2022-10-23T20:31:15.358Z,8.00
2022-10-23T20:33:42.356Z,7.40
2022-10-23T20:36:10.090Z,7.85
2022-10-23T20:38:36.622Z,6.95
2022-10-23T20:41:06.986Z,7.88
2022-10-23T20:43:36.516Z,6.22
2022-10-23T20:46:04.006Z,8.48
2022-10-23T20:48:35.310Z,7.55
2022-10-23T20:51:02.884Z,6.85
2022-10-23T20:53:29.488Z,6.40
2022-10-23T20:55:56.316Z,8.27
2022-10-23T20:58:23.332Z,5.72
2022-10-23T21:00:50.190Z,6.43
2022-10-23T21:03:16.768Z,4.93
2022-10-23T21:05:43.531Z,5.93
